createdAt,value
2019-01-11T00:02:28.280Z,8.13
2019-01-11T00:04:58.537Z,8.05
2019-01-11T00:07:28.620Z,7.67
2019-01-11T00:09:58.696Z,7.97
2019-01-11T00:12:28.672Z,7.75
2019-01-11T00:14:58.736Z,8.08
2019-01-11T00:17:28.817Z,8.53
2019-01-11T00:20:03.551Z,7.67
2019-01-11T00:22:30.617Z,7.60
2019-01-11T00:25:03.276Z,8.28
2019-01-11T00:27:34.316Z,8.75
2019-01-11T00:30:04.847Z,8.60
2019-01-11T00:32:36.704Z,7.60
2019-01-11T00:35:07.715Z,8.93
2019-01-11T00:37:37.664Z,7.30
2019-01-11T00:40:08.576Z,8.33
2019-01-11T00:42:39.193Z,7.80
2019-01-11T00:45:09.832Z,8.33
2019-01-11T00:47:40.587Z,7.17
2019-01-11T00:50:11.525Z,8.53
2019-01-11T00:52:42.024Z,8.05
2019-01-11T00:55:11.448Z,7.83
2019-01-11T00:57:41.280Z,8.18
2019-01-11T01:00:16.186Z,8.40
2019-01-11T01:02:46.237Z,8.38
2019-01-11T01:05:16.308Z,8.20
2019-01-11T01:07:46.394Z,7.92
2019-01-11T01:10:18.648Z,8.35
2019-01-11T01:12:49.324Z,8.05
2019-01-11T01:15:20.160Z,8.65
2019-01-11T01:17:50.131Z,8.38
2019-01-11T01:20:20.626Z,8.33
2019-01-11T01:22:51.649Z,9.30
2019-01-11T01:25:21.573Z,8.03
2019-01-11T01:27:51.733Z,8.48
2019-01-11T01:30:22.542Z,8.57
2019-01-11T01:32:52.683Z,10.00
2019-01-11T01:35:23.087Z,8.20
2019-01-11T01:37:52.692Z,8.65
2019-01-11T01:40:23.224Z,8.58
2019-01-11T01:42:53.282Z,7.42
2019-01-11T01:45:23.243Z,7.10
2019-01-11T01:47:53.312Z,8.73
2019-01-11T01:50:23.549Z,8.48
2019-01-11T01:52:53.551Z,7.37
2019-01-11T01:55:23.628Z,8.60
2019-01-11T01:57:53.464Z,8.23
2019-01-11T02:00:23.853Z,8.88
2019-01-11T02:02:53.806Z,8.73
2019-01-11T02:05:23.881Z,8.43
2019-01-11T02:07:54.060Z,8.10
2019-01-11T02:10:24.025Z,8.10
2019-01-11T02:12:53.932Z,8.43
2019-01-11T02:15:23.884Z,8.37
2019-01-11T02:17:53.968Z,9.15
2019-01-11T02:20:24.124Z,8.53
2019-01-11T02:22:54.132Z,9.40
2019-01-11T02:25:24.055Z,8.45
2019-01-11T02:27:54.156Z,8.23
2019-01-11T02:30:27.159Z,8.93
2019-01-11T02:32:57.137Z,8.48
2019-01-11T02:35:27.100Z,9.03
2019-01-11T02:37:57.054Z,8.53
2019-01-11T02:40:27.233Z,8.58
2019-01-11T02:42:57.291Z,9.38
2019-01-11T02:45:27.261Z,9.55
2019-01-11T02:47:57.337Z,7.75
2019-01-11T02:50:27.500Z,8.08
2019-01-11T02:52:58.829Z,8.40
2019-01-11T02:55:30.456Z,9.45
2019-01-11T02:58:00.598Z,10.07
2019-01-11T03:00:30.745Z,10.13
2019-01-11T03:03:00.725Z,9.53
2019-01-11T03:05:29.870Z,9.23
2019-01-11T03:07:59.925Z,10.48
2019-01-11T03:10:29.969Z,8.33
2019-01-11T03:12:59.869Z,8.48
2019-01-11T03:15:31.230Z,10.47
2019-01-11T03:18:01.310Z,10.10
2019-01-11T03:20:31.480Z,9.33
2019-01-11T03:23:01.563Z,8.75
2019-01-11T03:25:31.608Z,9.45
2019-01-11T03:28:01.765Z,9.08
2019-01-11T03:30:31.855Z,8.90
2019-01-11T03:33:01.865Z,7.62
2019-01-11T03:35:31.688Z,9.68
2019-01-11T03:38:02.165Z,10.75
2019-01-11T03:40:32.196Z,9.35
2019-01-11T03:43:02.265Z,10.88
2019-01-11T03:45:32.214Z,10.07
2019-01-11T03:48:02.279Z,9.78
2019-01-11T03:50:32.145Z,9.15
2019-01-11T03:53:02.219Z,10.47
2019-01-11T03:55:32.192Z,8.20
2019-01-11T03:58:02.033Z,9.90
2019-01-11T04:00:33.737Z,8.50
2019-01-11T04:03:03.289Z,9.25
2019-01-11T04:05:33.290Z,9.30
2019-01-11T04:08:03.336Z,8.33
2019-01-11T04:10:33.320Z,8.33
2019-01-11T04:13:03.273Z,9.08
2019-01-11T04:15:33.232Z,8.75
2019-01-11T04:18:25.264Z,9.50
2019-01-11T04:20:56.808Z,8.35
2019-01-11T04:23:27.344Z,8.83
2019-01-11T04:25:58.074Z,7.73
2019-01-11T04:28:28.037Z,8.38
2019-01-11T04:30:58.022Z,10.10
2019-01-11T04:33:27.970Z,8.83
2019-01-11T04:35:57.841Z,8.73
2019-01-11T04:38:28.003Z,8.60
2019-01-11T04:40:57.890Z,9.30
2019-01-11T04:43:27.941Z,9.15
2019-01-11T04:45:57.844Z,8.48
2019-01-11T04:48:27.655Z,9.13
2019-01-11T04:50:57.446Z,8.88
2019-01-11T04:53:29.204Z,9.10
2019-01-11T04:55:59.376Z,8.48
2019-01-11T04:58:29.268Z,9.03
2019-01-11T05:00:59.451Z,8.93
2019-01-11T05:03:29.653Z,9.80
2019-01-11T05:06:04.362Z,8.55
2019-01-11T05:08:35.629Z,8.80
2019-01-11T05:11:07.057Z,8.38
2019-01-11T05:13:41.941Z,8.00
2019-01-11T05:16:12.344Z,9.10
2019-01-11T05:18:42.515Z,9.65
2019-01-11T05:21:12.268Z,8.60
2019-01-11T05:23:42.313Z,9.30
2019-01-11T05:26:12.244Z,9.88
2019-01-11T05:28:42.113Z,9.15
2019-01-11T05:31:12.197Z,9.20
2019-01-11T05:33:42.156Z,9.03
2019-01-11T05:36:13.079Z,8.20
2019-01-11T05:38:43.319Z,8.10
2019-01-11T05:41:13.477Z,8.60
2019-01-11T05:43:43.548Z,9.73
2019-01-11T05:46:13.405Z,9.25
2019-01-11T05:48:43.483Z,9.47
2019-01-11T05:51:13.422Z,8.73
2019-01-11T05:53:43.314Z,7.95
2019-01-11T05:56:15.476Z,7.93
2019-01-11T05:58:52.251Z,8.90
2019-01-11T06:01:22.433Z,8.10
2019-01-11T06:03:52.404Z,8.55
2019-01-11T06:06:22.717Z,9.28
2019-01-11T06:08:52.780Z,8.48
2019-01-11T06:11:22.780Z,8.00
2019-01-11T06:13:52.551Z,9.28
2019-01-11T06:16:22.510Z,11.48
2019-01-11T06:18:52.485Z,8.60
2019-01-11T06:21:22.334Z,8.30
2019-01-11T06:23:52.416Z,9.85
2019-01-11T06:26:22.464Z,9.95
2019-01-11T06:28:52.461Z,9.67
2019-01-11T06:31:22.637Z,9.55
2019-01-11T06:33:53.695Z,9.17
2019-01-11T06:36:23.782Z,9.73
2019-01-11T06:38:53.808Z,8.53
2019-01-11T06:41:27.238Z,8.63
2019-01-11T06:43:57.269Z,8.73
2019-01-11T06:46:27.902Z,9.38
2019-01-11T06:48:57.923Z,9.25
2019-01-11T06:51:27.865Z,9.95
2019-01-11T06:53:57.961Z,8.78
2019-01-11T06:56:28.097Z,9.28
2019-01-11T06:58:58.078Z,9.50
2019-01-11T07:01:28.153Z,10.32
2019-01-11T07:03:58.320Z,8.75
2019-01-11T07:06:28.333Z,9.28
2019-01-11T07:08:58.391Z,8.45
2019-01-11T07:11:28.589Z,10.45
2019-01-11T07:13:58.616Z,9.98
2019-01-11T07:16:30.224Z,10.28
2019-01-11T07:19:00.517Z,8.90
2019-01-11T07:21:31.403Z,8.30
2019-01-11T07:24:01.363Z,10.00
2019-01-11T07:26:33.291Z,9.38
2019-01-11T07:29:04.647Z,8.80
2019-01-11T07:31:35.048Z,8.88
2019-01-11T07:34:05.096Z,9.48
2019-01-11T07:36:38.440Z,8.78
2019-01-11T07:39:28.456Z,8.95
2019-01-11T07:41:58.365Z,9.88
2019-01-11T07:44:28.413Z,9.05
2019-01-11T07:46:58.692Z,9.13
2019-01-11T07:49:28.860Z,8.67
2019-01-11T07:51:59.033Z,8.63
2019-01-11T07:54:29.100Z,9.37
2019-01-11T07:56:58.987Z,8.80
2019-01-11T07:59:29.224Z,9.90
2019-01-11T08:01:59.006Z,9.85
2019-01-11T08:04:28.876Z,8.98
2019-01-11T08:06:59.428Z,9.20
2019-01-11T08:09:29.506Z,9.10
2019-01-11T08:11:59.370Z,9.28
2019-01-11T08:14:29.372Z,8.73
2019-01-11T08:16:59.524Z,8.48
2019-01-11T08:19:30.636Z,8.63
2019-01-11T08:22:00.462Z,8.83
2019-01-11T08:24:30.521Z,8.73
2019-01-11T08:27:01.402Z,11.08
2019-01-11T08:29:31.472Z,7.28
2019-01-11T08:32:01.642Z,11.50
2019-01-11T08:34:32.169Z,8.83
2019-01-11T08:37:01.999Z,8.33
2019-01-11T08:39:32.559Z,9.78
2019-01-11T08:42:03.700Z,8.30
2019-01-11T08:44:33.683Z,8.43
2019-01-11T08:47:03.629Z,8.88
2019-01-11T08:49:33.825Z,9.23
2019-01-11T08:52:03.193Z,9.10
2019-01-11T08:54:33.312Z,8.65
2019-01-11T08:57:05.287Z,10.08
2019-01-11T08:59:35.005Z,9.10
2019-01-11T09:02:04.986Z,13.45
2019-01-11T09:04:34.944Z,9.18
2019-01-11T09:07:05.000Z,9.35
2019-01-11T09:09:35.100Z,10.00
2019-01-11T09:12:05.103Z,9.55
2019-01-11T09:14:48.317Z,9.00
2019-01-11T09:17:19.600Z,8.80
2019-01-11T09:19:49.584Z,8.85
2019-01-11T09:22:19.953Z,8.60
2019-01-11T09:24:50.016Z,8.53
2019-01-11T09:27:20.283Z,8.45
2019-01-11T09:29:50.363Z,9.08
2019-01-11T09:32:20.632Z,9.25
2019-01-11T09:34:50.609Z,9.53
2019-01-11T09:37:20.685Z,9.25
2019-01-11T09:39:50.593Z,10.05
2019-01-11T09:42:22.409Z,9.88
2019-01-11T09:44:52.201Z,8.20
2019-01-11T09:47:22.484Z,9.50
2019-01-11T09:49:52.451Z,8.85
2019-01-11T09:52:22.716Z,9.65
2019-01-11T09:54:52.684Z,9.83
2019-01-11T09:57:22.840Z,11.65
2019-01-11T09:59:52.725Z,8.93
2019-01-11T10:02:32.858Z,8.10
2019-01-11T10:05:02.772Z,7.85
2019-01-11T10:07:32.988Z,7.55
2019-01-11T10:10:02.842Z,8.45
2019-01-11T10:12:32.672Z,9.30
2019-01-11T10:15:02.646Z,8.90
2019-01-11T10:17:32.838Z,8.05
2019-01-11T10:20:02.804Z,8.17
2019-01-11T10:22:33.006Z,9.93
2019-01-11T10:25:03.165Z,11.68
2019-01-11T10:27:33.236Z,10.13
2019-01-11T10:30:04.392Z,7.47
2019-01-11T10:32:34.411Z,10.23
2019-01-11T10:35:04.878Z,8.50
2019-01-11T10:37:34.846Z,8.88
2019-01-11T10:40:05.201Z,8.60
2019-01-11T10:42:35.176Z,9.28
2019-01-11T10:45:06.365Z,10.80
2019-01-11T10:47:36.544Z,9.25
2019-01-11T10:50:07.965Z,10.10
2019-01-11T10:52:37.904Z,8.75
2019-01-11T10:55:09.604Z,9.03
2019-01-11T10:57:39.709Z,8.67
2019-01-11T11:00:13.980Z,8.35
2019-01-11T11:02:44.011Z,9.48
2019-01-11T11:05:14.180Z,9.23
2019-01-11T11:07:44.256Z,9.07
2019-01-11T11:10:15.328Z,9.25
2019-01-11T11:12:45.618Z,11.43
2019-01-11T11:15:16.590Z,8.78
2019-01-11T11:17:46.988Z,12.78
2019-01-11T11:20:18.892Z,9.63
2019-01-11T11:22:49.272Z,9.55
2019-01-11T11:25:21.290Z,11.80
2019-01-11T11:27:51.457Z,9.23
2019-01-11T11:30:22.420Z,8.83
2019-01-11T11:32:59.481Z,9.28
2019-01-11T11:35:30.880Z,11.12
2019-01-11T11:38:00.964Z,16.30
2019-01-11T11:40:32.019Z,17.23
2019-01-11T11:43:02.435Z,9.43
2019-01-11T11:45:31.907Z,9.83
2019-01-11T11:48:01.920Z,8.73
2019-01-11T11:50:32.089Z,9.70
2019-01-11T11:53:02.274Z,12.60
2019-01-11T11:55:32.572Z,9.80
2019-01-11T11:58:02.694Z,8.38
2019-01-11T12:00:33.227Z,12.33
2019-01-11T12:03:04.087Z,12.70
2019-01-11T12:05:34.620Z,8.58
2019-01-11T12:08:05.032Z,10.13
2019-01-11T12:10:35.363Z,9.78
2019-01-11T12:13:05.686Z,8.78
2019-01-11T12:15:36.377Z,11.70
2019-01-11T12:18:06.944Z,14.45
2019-01-11T12:20:37.354Z,12.10
2019-01-11T12:23:07.628Z,10.43
2019-01-11T12:25:37.923Z,10.30
2019-01-11T12:28:08.732Z,9.78
2019-01-11T12:30:38.882Z,12.00
2019-01-11T12:33:08.918Z,11.22
2019-01-11T12:35:38.879Z,9.70
2019-01-11T12:38:13.651Z,7.62
2019-01-11T12:40:40.673Z,9.93
2019-01-11T12:43:11.103Z,9.57
2019-01-11T12:45:41.115Z,14.13
2019-01-11T12:48:11.272Z,18.57
2019-01-11T12:50:41.353Z,11.00
2019-01-11T12:53:11.404Z,10.45
2019-01-11T12:55:41.483Z,7.83
2019-01-11T12:58:11.512Z,12.83
2019-01-11T13:00:42.012Z,11.40
2019-01-11T13:03:12.089Z,11.22
2019-01-11T13:05:42.060Z,11.48
2019-01-11T13:08:12.012Z,8.33
2019-01-11T13:10:42.101Z,10.23
2019-01-11T13:13:12.052Z,11.33
2019-01-11T13:15:42.025Z,8.63
2019-01-11T13:18:12.084Z,8.15
2019-01-11T13:20:41.161Z,8.20
2019-01-11T13:23:10.296Z,8.18
2019-01-11T13:25:40.246Z,8.80
2019-01-11T13:28:10.218Z,8.55
2019-01-11T13:30:40.782Z,7.90
2019-01-11T13:33:11.152Z,10.03
2019-01-11T13:35:41.323Z,10.53
2019-01-11T13:38:11.400Z,12.37
2019-01-11T13:40:41.365Z,9.28
2019-01-11T13:43:11.234Z,8.03
2019-01-11T13:45:41.402Z,7.83
2019-01-11T13:48:11.569Z,9.50
2019-01-11T13:50:42.772Z,6.90
2019-01-11T13:53:17.408Z,10.03
2019-01-11T13:55:47.312Z,9.03
2019-01-11T13:58:17.470Z,9.65
2019-01-11T14:00:47.347Z,8.68
2019-01-11T14:03:17.297Z,7.57
2019-01-11T14:05:47.477Z,9.15
2019-01-11T14:08:17.575Z,8.90
2019-01-11T14:10:47.608Z,8.90
2019-01-11T14:13:17.617Z,6.97
2019-01-11T14:15:47.692Z,8.73
2019-01-11T14:18:17.964Z,8.38
2019-01-11T14:20:48.144Z,7.57
2019-01-11T14:23:18.191Z,8.08
2019-01-11T14:25:48.480Z,7.97
2019-01-11T14:28:18.432Z,8.85
2019-01-11T14:30:48.392Z,7.05
2019-01-11T14:33:18.305Z,8.03
2019-01-11T14:35:48.218Z,8.35
2019-01-11T14:38:17.376Z,8.08
2019-01-11T14:40:47.226Z,8.58
2019-01-11T14:43:17.113Z,8.18
2019-01-11T14:45:47.416Z,7.70
2019-01-11T14:48:17.240Z,7.78
2019-01-11T14:50:47.191Z,7.80
2019-01-11T14:53:17.272Z,7.10
2019-01-11T14:55:47.340Z,7.60
2019-01-11T14:58:17.313Z,7.55
2019-01-11T15:00:47.153Z,7.62
2019-01-11T15:03:18.610Z,6.53
2019-01-11T15:05:47.968Z,6.67
2019-01-11T15:08:18.157Z,7.60
2019-01-11T15:10:48.033Z,8.38
2019-01-11T15:13:17.932Z,7.70
2019-01-11T15:15:47.779Z,7.58
2019-01-11T15:18:17.848Z,7.75
2019-01-11T15:20:47.916Z,7.93
2019-01-11T15:23:17.889Z,7.50
2019-01-11T15:25:47.732Z,8.15
2019-01-11T15:28:17.505Z,6.33
2019-01-11T15:30:47.316Z,6.80
2019-01-11T15:33:17.268Z,8.05
2019-01-11T15:35:47.153Z,7.17
2019-01-11T15:38:16.544Z,7.03
2019-01-11T15:40:46.360Z,8.35
2019-01-11T15:43:16.720Z,8.03
2019-01-11T15:45:45.832Z,6.95
2019-01-11T15:48:18.655Z,7.45
2019-01-11T15:51:05.869Z,6.28
2019-01-11T15:53:37.577Z,8.80
2019-01-11T15:56:12.840Z,6.92
2019-01-11T15:58:43.021Z,8.35
2019-01-11T16:01:13.805Z,7.95
2019-01-11T16:03:44.480Z,6.62
2019-01-11T16:06:32.469Z,7.62
2019-01-11T16:10:01.281Z,7.17
2019-01-11T16:12:46.827Z,6.75
2019-01-11T16:16:15.785Z,7.33
2019-01-11T16:18:45.829Z,7.12
2019-01-11T16:21:15.868Z,7.20
2019-01-11T16:23:45.767Z,7.78
2019-01-11T16:26:16.151Z,8.03
2019-01-11T16:28:46.051Z,7.35
2019-01-11T16:31:16.281Z,7.58
2019-01-11T16:33:46.695Z,7.13
2019-01-11T16:36:17.141Z,6.55
2019-01-11T16:38:47.187Z,6.78
2019-01-11T16:41:17.172Z,6.67
2019-01-11T16:43:47.017Z,8.35
2019-01-11T16:46:18.515Z,7.45
2019-01-11T16:48:48.612Z,7.05
2019-01-11T16:51:18.607Z,7.08
2019-01-11T16:53:48.598Z,6.53
2019-01-11T16:56:18.596Z,7.28
2019-01-11T16:58:51.019Z,7.08
2019-01-11T17:01:21.704Z,7.90
2019-01-11T17:03:51.869Z,6.85
2019-01-11T17:06:21.858Z,6.80
2019-01-11T17:08:51.695Z,7.85
2019-01-11T17:11:21.785Z,6.95
2019-01-11T17:13:51.580Z,6.95
2019-01-11T17:16:21.420Z,7.37
2019-01-11T17:18:51.321Z,7.10
2019-01-11T17:21:21.265Z,6.83
2019-01-11T17:23:51.237Z,7.40
2019-01-11T17:26:21.196Z,8.90
2019-01-11T17:28:51.168Z,6.97
2019-01-11T17:31:21.024Z,7.42
2019-01-11T17:33:51.600Z,7.20
2019-01-11T17:36:21.676Z,6.75
2019-01-11T17:38:51.536Z,8.17
2019-01-11T17:41:21.644Z,7.17
2019-01-11T17:43:51.571Z,7.87
2019-01-11T17:46:21.628Z,8.90
2019-01-11T17:48:51.920Z,7.78
2019-01-11T17:51:21.973Z,7.93
2019-01-11T17:53:52.051Z,8.38
2019-01-11T17:56:22.000Z,7.47
2019-01-11T17:58:51.986Z,9.15
2019-01-11T18:01:22.035Z,7.42
2019-01-11T18:03:51.806Z,7.53
2019-01-11T18:06:21.769Z,6.53
2019-01-11T18:08:51.940Z,7.65
2019-01-11T18:11:21.793Z,9.20
2019-01-11T18:13:51.787Z,7.87
2019-01-11T18:16:21.773Z,7.50
2019-01-11T18:18:51.809Z,7.33
2019-01-11T18:21:21.868Z,8.15
2019-01-11T18:23:52.360Z,7.45
2019-01-11T18:26:22.205Z,8.03
2019-01-11T18:28:52.409Z,7.15
2019-01-11T18:31:22.355Z,7.50
2019-01-11T18:33:52.525Z,6.47
2019-01-11T18:36:22.799Z,7.90
2019-01-11T18:38:53.081Z,7.08
2019-01-11T18:41:22.817Z,6.58
2019-01-11T18:43:52.953Z,7.83
2019-01-11T18:46:22.713Z,6.87
2019-01-11T18:48:53.109Z,6.72
2019-01-11T18:51:23.048Z,5.87
2019-01-11T18:53:52.888Z,7.22
2019-01-11T18:56:22.777Z,5.67
2019-01-11T18:58:52.733Z,6.92
2019-01-11T19:01:22.721Z,7.00
2019-01-11T19:03:52.556Z,6.58
2019-01-11T19:06:22.537Z,7.00
2019-01-11T19:08:52.500Z,6.78
2019-01-11T19:11:22.681Z,7.70
2019-01-11T19:13:53.259Z,6.40
2019-01-11T19:16:23.341Z,7.77
2019-01-11T19:18:53.464Z,7.17
2019-01-11T19:21:24.365Z,7.10
2019-01-11T19:23:54.501Z,7.50
2019-01-11T19:26:24.628Z,7.50
2019-01-11T19:28:55.696Z,7.43
2019-01-11T19:31:26.086Z,7.28
2019-01-11T19:33:56.422Z,6.92
2019-01-11T19:36:27.645Z,7.45
2019-01-11T19:38:57.983Z,7.75
2019-01-11T19:41:27.884Z,7.03
2019-01-11T19:43:57.841Z,7.65
2019-01-11T19:46:27.932Z,6.80
2019-01-11T19:48:58.182Z,7.08
2019-01-11T19:51:28.378Z,7.05
2019-01-11T19:53:58.437Z,7.57
2019-01-11T19:56:29.517Z,8.75
2019-01-11T19:58:59.884Z,7.80
2019-01-11T20:01:30.578Z,6.90
2019-01-11T20:04:01.453Z,6.58
2019-01-11T20:06:31.847Z,7.12
2019-01-11T20:09:01.809Z,6.92
2019-01-11T20:11:31.658Z,8.00
2019-01-11T20:14:01.582Z,7.13
2019-01-11T20:16:31.735Z,7.42
2019-01-11T20:19:01.821Z,6.37
2019-01-11T20:21:31.788Z,7.95
2019-01-11T20:24:01.855Z,7.53
2019-01-11T20:26:31.802Z,7.08
2019-01-11T20:29:02.087Z,6.73
2019-01-11T20:31:32.149Z,7.17
2019-01-11T20:34:02.226Z,6.83
2019-01-11T20:36:34.150Z,7.20
2019-01-11T20:39:05.023Z,8.53
2019-01-11T20:41:35.090Z,7.62
2019-01-11T20:44:05.060Z,6.92
2019-01-11T20:46:35.000Z,6.47
2019-01-11T20:49:05.197Z,6.37
2019-01-11T20:51:35.060Z,7.22
2019-01-11T20:54:05.226Z,6.60
2019-01-11T20:56:36.689Z,6.53
2019-01-11T20:59:06.485Z,6.78
2019-01-11T21:01:36.555Z,6.20
2019-01-11T21:04:06.519Z,5.90
2019-01-11T21:06:36.564Z,7.00
2019-01-11T21:09:08.912Z,6.40
2019-01-11T21:11:38.855Z,6.50
2019-01-11T21:14:08.949Z,7.85
2019-01-11T21:16:39.609Z,8.28
2019-01-11T21:19:09.902Z,7.85
2019-01-11T21:21:40.150Z,7.00
2019-01-11T21:24:10.328Z,7.80
2019-01-11T21:26:40.513Z,7.30
2019-01-11T21:29:10.873Z,7.30
2019-01-11T21:31:41.188Z,7.55
2019-01-11T21:34:12.461Z,7.00
2019-01-11T21:36:42.876Z,6.03
2019-01-11T21:39:13.696Z,7.42
2019-01-11T21:41:43.733Z,6.15
2019-01-11T21:44:14.092Z,7.20
2019-01-11T21:46:44.469Z,6.95
2019-01-11T21:49:14.649Z,6.47
2019-01-11T21:51:44.906Z,6.22
2019-01-11T21:54:15.079Z,6.45
2019-01-11T21:56:44.952Z,6.42
2019-01-11T21:59:14.904Z,6.57
2019-01-11T22:01:44.768Z,6.30
2019-01-11T22:04:14.732Z,6.60
2019-01-11T22:06:44.720Z,5.80
2019-01-11T22:09:14.665Z,7.57
2019-01-11T22:11:44.544Z,6.85
2019-01-11T22:14:14.501Z,6.95
2019-01-11T22:16:45.384Z,7.40
2019-01-11T22:19:15.337Z,6.85
2019-01-11T22:21:45.846Z,7.20
2019-01-11T22:24:15.788Z,7.40
2019-01-11T22:26:45.868Z,7.17
2019-01-11T22:29:15.813Z,6.83
2019-01-11T22:31:45.901Z,6.70
2019-01-11T22:34:16.161Z,7.40
2019-01-11T22:36:48.657Z,7.70
2019-01-11T22:39:19.155Z,6.40
2019-01-11T22:41:49.134Z,7.58
2019-01-11T22:44:20.814Z,6.25
2019-01-11T22:46:51.701Z,6.67
2019-01-11T22:49:21.644Z,6.78
2019-01-11T22:51:51.492Z,7.35
2019-01-11T22:54:21.382Z,7.53
2019-01-11T22:56:50.680Z,6.42
2019-01-11T22:59:20.985Z,7.57
2019-01-11T23:02:15.677Z,6.80
2019-01-11T23:04:45.818Z,6.62
2019-01-11T23:07:46.850Z,7.13
2019-01-11T23:11:09.592Z,6.42
2019-01-11T23:13:39.724Z,7.10
2019-01-11T23:16:34.944Z,7.20
2019-01-11T23:19:04.957Z,7.12
2019-01-11T23:21:35.030Z,7.08
2019-01-11T23:24:05.717Z,8.10
2019-01-11T23:26:35.636Z,6.90
2019-01-11T23:29:05.633Z,6.60
2019-01-11T23:31:35.621Z,8.08
2019-01-11T23:34:05.766Z,5.80
2019-01-11T23:36:35.690Z,6.90
2019-01-11T23:39:08.032Z,6.33
2019-01-11T23:41:38.198Z,7.17
2019-01-11T23:44:08.084Z,7.97
2019-01-11T23:46:38.248Z,7.00
2019-01-11T23:49:08.116Z,7.43
2019-01-11T23:51:37.920Z,7.00
2019-01-11T23:54:07.779Z,8.18
2019-01-11T23:56:37.656Z,7.42
2019-01-11T23:59:07.901Z,6.83
